createdAt,value
2022-12-29T00:00:22.845Z,100260.98
2022-12-29T00:03:10.736Z,100259.54
2022-12-29T00:05:38.504Z,100262.52
2022-12-29T00:08:06.667Z,100263.37
2022-12-29T00:10:34.501Z,100259.74
2022-12-29T00:13:21.107Z,100259.83
2022-12-29T00:15:49.132Z,100253.66
2022-12-29T00:18:17.053Z,100250.96
2022-12-29T00:21:04.075Z,100251.60
2022-12-29T00:23:50.131Z,100248.91
2022-12-29T00:26:37.041Z,100252.91
2022-12-29T00:29:23.271Z,100253.30
2022-12-29T00:32:09.582Z,100252.67
2022-12-29T00:34:55.920Z,100254.46
2022-12-29T00:37:43.675Z,100254.74
2022-12-29T00:40:30.082Z,100253.02
2022-12-29T00:43:18.173Z,100258.66
2022-12-29T00:45:46.384Z,100261.27
2022-12-29T00:48:14.365Z,100261.95
2022-12-29T00:50:42.178Z,100261.23
2022-12-29T00:53:09.999Z,100257.15
2022-12-29T00:55:38.693Z,100252.25
2022-12-29T00:58:07.168Z,100253.46
2022-12-29T01:00:35.561Z,100249.25
2022-12-29T01:03:03.742Z,100247.48
2022-12-29T01:05:31.816Z,100246.46
2022-12-29T01:07:59.760Z,100247.55
2022-12-29T01:10:27.696Z,100243.45
2022-12-29T01:12:55.398Z,100242.80
2022-12-29T01:15:23.294Z,100237.84
2022-12-29T01:17:51.113Z,100235.52
2022-12-29T01:20:18.968Z,100228.95
2022-12-29T01:22:47.725Z,100224.00
2022-12-29T01:25:15.680Z,100219.22
2022-12-29T01:27:43.385Z,100219.45
2022-12-29T01:30:13.095Z,100212.45
2022-12-29T01:32:41.927Z,100210.23
2022-12-29T01:35:11.123Z,100207.61
2022-12-29T01:37:39.220Z,100202.23
2022-12-29T01:40:08.122Z,100196.04
2022-12-29T01:42:35.977Z,100196.45
2022-12-29T01:45:08.863Z,100194.38
2022-12-29T01:47:39.495Z,100199.19
2022-12-29T01:50:10.482Z,100193.27
2022-12-29T01:52:41.514Z,100190.70
2022-12-29T01:55:11.080Z,100190.95
2022-12-29T01:57:41.708Z,100181.69
2022-12-29T02:00:11.434Z,100184.09
2022-12-29T02:02:43.839Z,100176.23
2022-12-29T02:05:15.183Z,100178.34
2022-12-29T02:07:43.109Z,100167.07
2022-12-29T02:10:11.953Z,100153.88
2022-12-29T02:12:39.741Z,100163.96
2022-12-29T02:15:09.218Z,100178.40
2022-12-29T02:17:43.357Z,100184.75
2022-12-29T02:20:29.081Z,100186.65
2022-12-29T02:23:01.855Z,100183.59
2022-12-29T02:25:41.047Z,100182.16
2022-12-29T02:28:25.136Z,100183.11
2022-12-29T02:31:03.326Z,100186.83
2022-12-29T02:33:41.098Z,100186.30
2022-12-29T02:36:14.854Z,100190.92
2022-12-29T02:38:49.605Z,100191.49
2022-12-29T02:41:23.314Z,100191.63
2022-12-29T02:43:55.404Z,100192.58
2022-12-29T02:46:42.383Z,100190.50
2022-12-29T02:49:15.587Z,100195.02
2022-12-29T02:51:59.535Z,100192.67
2022-12-29T02:54:43.246Z,100194.13
2022-12-29T02:57:15.689Z,100192.02
2022-12-29T02:59:44.400Z,100196.70
2022-12-29T03:02:35.792Z,100199.46
2022-12-29T03:05:18.302Z,100194.81
2022-12-29T03:07:51.218Z,100195.56
2022-12-29T03:10:29.108Z,100195.55
2022-12-29T03:13:20.426Z,100192.17
2022-12-29T03:16:04.055Z,100188.91
2022-12-29T03:18:39.068Z,100181.18
2022-12-29T03:21:12.238Z,100180.05
2022-12-29T03:23:42.027Z,100173.17
2022-12-29T03:26:12.390Z,100159.68
2022-12-29T03:28:42.049Z,100160.02
2022-12-29T03:31:11.122Z,100160.35
2022-12-29T03:33:42.302Z,100155.84
2022-12-29T03:36:12.963Z,100138.02
2022-12-29T03:38:45.096Z,100110.92
2022-12-29T03:41:15.452Z,100103.23
2022-12-29T03:43:46.254Z,100108.52
2022-12-29T03:46:14.826Z,100144.20
2022-12-29T03:48:43.316Z,100136.70
2022-12-29T03:51:11.195Z,100131.91
2022-12-29T03:53:39.009Z,100126.07
2022-12-29T03:56:07.267Z,100114.69
2022-12-29T03:58:35.288Z,100107.36
2022-12-29T04:01:16.572Z,100109.41
2022-12-29T04:03:46.173Z,100110.55
2022-12-29T04:06:14.006Z,100111.85
2022-12-29T04:08:48.479Z,100104.44
2022-12-29T04:11:16.172Z,100109.81
2022-12-29T04:13:43.949Z,100104.28
2022-12-29T04:16:16.050Z,100098.77
2022-12-29T04:18:43.841Z,100111.83
2022-12-29T04:21:11.755Z,100109.77
2022-12-29T04:23:42.041Z,100107.56
2022-12-29T04:26:11.422Z,100107.98
2022-12-29T04:28:57.962Z,100111.38
2022-12-29T04:31:39.431Z,100110.01
2022-12-29T04:34:08.020Z,100103.69
2022-12-29T04:36:35.690Z,100089.36
2022-12-29T04:39:05.559Z,100082.13
2022-12-29T04:41:34.993Z,100080.48
2022-12-29T04:44:03.182Z,100086.65
2022-12-29T04:46:34.445Z,100081.98
2022-12-29T04:49:09.062Z,100085.70
2022-12-29T04:51:59.734Z,100083.46
2022-12-29T04:54:27.708Z,100082.10
2022-12-29T04:57:01.621Z,100080.63
2022-12-29T04:59:29.910Z,100070.70
2022-12-29T05:01:59.973Z,100064.46
2022-12-29T05:04:27.900Z,100066.44
2022-12-29T05:06:55.680Z,100057.57
2022-12-29T05:09:24.761Z,100057.28
2022-12-29T05:11:52.843Z,100059.76
2022-12-29T05:14:20.984Z,100056.02
2022-12-29T05:16:48.950Z,100054.41
2022-12-29T05:19:18.550Z,100058.86
2022-12-29T05:21:47.290Z,100062.73
2022-12-29T05:24:15.913Z,100055.78
2022-12-29T05:26:44.364Z,100052.67
2022-12-29T05:29:32.185Z,100051.54
2022-12-29T05:32:00.054Z,100050.13
2022-12-29T05:34:28.564Z,100031.61
2022-12-29T05:36:56.849Z,100036.36
2022-12-29T05:39:25.414Z,100027.52
2022-12-29T05:41:57.544Z,100032.71
2022-12-29T05:44:37.290Z,100028.45
2022-12-29T05:47:11.081Z,100029.80
2022-12-29T05:49:52.051Z,100031.81
2022-12-29T05:52:52.298Z,100026.98
2022-12-29T05:55:20.701Z,100034.73
2022-12-29T05:57:50.274Z,100033.73
2022-12-29T06:00:19.070Z,100032.45
2022-12-29T06:02:47.894Z,100034.23
2022-12-29T06:05:17.311Z,100028.70
2022-12-29T06:07:45.866Z,100033.29
2022-12-29T06:10:16.110Z,100036.00
2022-12-29T06:12:48.313Z,100038.47
2022-12-29T06:15:16.478Z,100041.83
2022-12-29T06:17:46.781Z,100046.32
2022-12-29T06:20:14.643Z,100034.65
2022-12-29T06:22:42.518Z,100026.77
2022-12-29T06:25:10.895Z,100025.99
2022-12-29T06:27:39.776Z,100026.05
2022-12-29T06:30:11.049Z,100035.11
2022-12-29T06:32:39.920Z,100039.72
2022-12-29T06:35:10.804Z,100036.42
2022-12-29T06:37:43.616Z,100032.15
2022-12-29T06:40:12.112Z,100033.48
2022-12-29T06:42:58.385Z,100035.59
2022-12-29T06:45:57.890Z,100042.12
2022-12-29T06:48:25.672Z,100044.54
2022-12-29T06:50:53.360Z,100044.23
2022-12-29T06:53:20.993Z,100041.11
2022-12-29T06:55:48.677Z,100042.77
2022-12-29T06:58:16.557Z,100035.04
2022-12-29T07:00:45.733Z,100033.48
2022-12-29T07:03:13.699Z,100026.65
2022-12-29T07:05:41.949Z,100021.83
2022-12-29T07:08:09.839Z,100016.10
2022-12-29T07:10:37.609Z,100018.61
2022-12-29T07:13:05.374Z,100016.15
2022-12-29T07:15:33.339Z,100011.95
2022-12-29T07:18:01.391Z,100014.84
2022-12-29T07:20:30.538Z,100011.46
2022-12-29T07:22:58.452Z,100012.89
2022-12-29T07:25:26.321Z,100011.44
2022-12-29T07:27:54.431Z,100013.63
2022-12-29T07:30:22.094Z,100012.91
2022-12-29T07:32:49.771Z,100020.00
2022-12-29T07:35:17.859Z,100024.86
2022-12-29T07:37:45.754Z,100020.77
2022-12-29T07:40:13.556Z,100018.35
2022-12-29T07:42:41.939Z,100022.64
2022-12-29T07:45:11.415Z,100018.28
2022-12-29T07:48:03.007Z,100023.61
2022-12-29T07:50:30.712Z,100019.33
2022-12-29T07:52:58.351Z,100021.16
2022-12-29T07:55:26.208Z,100015.11
2022-12-29T07:57:55.969Z,100020.52
2022-12-29T08:00:23.780Z,100013.39
2022-12-29T08:02:53.243Z,100010.84
2022-12-29T08:05:21.082Z,100003.18
2022-12-29T08:07:49.242Z,100002.58
2022-12-29T08:10:17.524Z,100004.17
2022-12-29T08:12:45.226Z,99997.23
2022-12-29T08:15:12.988Z,99998.08
2022-12-29T08:17:40.883Z,99996.21
2022-12-29T08:20:09.702Z,99997.02
2022-12-29T08:22:37.483Z,99996.37
2022-12-29T08:25:06.189Z,99996.33
2022-12-29T08:27:33.949Z,99998.92
2022-12-29T08:30:01.842Z,99999.91
2022-12-29T08:32:29.690Z,100000.76
2022-12-29T08:34:57.461Z,99999.83
2022-12-29T08:37:30.865Z,100002.11
2022-12-29T08:40:00.625Z,100011.27
2022-12-29T08:42:31.477Z,100016.45
2022-12-29T08:44:59.431Z,100020.33
2022-12-29T08:47:27.323Z,100025.98
2022-12-29T08:49:55.121Z,100026.14
2022-12-29T08:52:23.322Z,100025.30
2022-12-29T08:54:52.182Z,100022.05
2022-12-29T08:57:19.950Z,100017.17
2022-12-29T09:00:01.730Z,100010.52
2022-12-29T09:02:29.899Z,100015.86
2022-12-29T09:04:57.842Z,100017.54
2022-12-29T09:07:25.841Z,100015.20
2022-12-29T09:09:53.605Z,100011.30
2022-12-29T09:12:21.388Z,100006.59
2022-12-29T09:14:49.070Z,100005.40
2022-12-29T09:17:35.420Z,100002.52
2022-12-29T09:20:03.609Z,100000.82
2022-12-29T09:22:31.625Z,99997.01
2022-12-29T09:24:59.455Z,99996.02
2022-12-29T09:27:27.521Z,99998.73
2022-12-29T09:29:55.341Z,99997.51
2022-12-29T09:32:23.730Z,100002.63
2022-12-29T09:34:52.174Z,99995.83
2022-12-29T09:37:20.494Z,99996.62
2022-12-29T09:39:54.079Z,99997.66
2022-12-29T09:42:26.360Z,99995.64
2022-12-29T09:45:02.213Z,99990.50
2022-12-29T09:47:30.140Z,99988.87
2022-12-29T09:50:01.962Z,99983.89
2022-12-29T09:52:32.931Z,99979.45
2022-12-29T09:55:07.545Z,99980.66
2022-12-29T09:57:41.325Z,99973.52
2022-12-29T10:00:13.794Z,99970.80
2022-12-29T10:02:43.650Z,99976.13
2022-12-29T10:05:17.424Z,99972.45
2022-12-29T10:07:49.463Z,99969.17
2022-12-29T10:10:24.061Z,99965.64
2022-12-29T10:12:59.166Z,99962.65
2022-12-29T10:15:40.365Z,99960.02
2022-12-29T10:18:15.870Z,99961.70
2022-12-29T10:20:50.603Z,99956.08
2022-12-29T10:23:23.383Z,99957.52
2022-12-29T10:25:53.904Z,99953.88
2022-12-29T10:28:23.004Z,99947.88
2022-12-29T10:30:52.920Z,99950.69
2022-12-29T10:33:24.143Z,99953.36
2022-12-29T10:35:52.212Z,99956.53
2022-12-29T10:38:24.810Z,99952.27
2022-12-29T10:40:56.677Z,99947.96
2022-12-29T10:43:26.482Z,99944.88
2022-12-29T10:45:55.592Z,99940.95
2022-12-29T10:48:31.478Z,99937.25
2022-12-29T10:51:02.421Z,99936.50
2022-12-29T10:53:36.125Z,99936.65
2022-12-29T10:56:07.128Z,99934.54
2022-12-29T10:58:34.885Z,99934.34
2022-12-29T11:01:04.362Z,99932.95
2022-12-29T11:03:42.618Z,99931.87
2022-12-29T11:06:11.707Z,99933.52
2022-12-29T11:08:43.569Z,99934.05
2022-12-29T11:11:11.313Z,99932.05
2022-12-29T11:13:48.817Z,99934.28
2022-12-29T11:16:27.692Z,99929.29
2022-12-29T11:18:55.498Z,99925.88
2022-12-29T11:21:26.473Z,99918.52
2022-12-29T11:23:57.934Z,99916.59
2022-12-29T11:26:31.803Z,99919.34
2022-12-29T11:29:18.213Z,99918.64
2022-12-29T11:31:46.828Z,99918.14
2022-12-29T11:34:18.853Z,99922.63
2022-12-29T11:36:46.927Z,99932.16
2022-12-29T11:39:26.678Z,99931.77
2022-12-29T11:41:54.749Z,99924.88
2022-12-29T11:44:22.697Z,99922.59
2022-12-29T11:46:52.842Z,99924.02
2022-12-29T11:49:21.436Z,99919.91
2022-12-29T11:51:50.469Z,99922.45
2022-12-29T11:54:20.263Z,99922.52
2022-12-29T11:56:49.016Z,99927.16
2022-12-29T11:59:25.973Z,99918.52
2022-12-29T12:01:54.181Z,99913.69
2022-12-29T12:04:23.939Z,99908.58
2022-12-29T12:06:59.039Z,99904.49
2022-12-29T12:09:30.702Z,99903.41
2022-12-29T12:12:00.186Z,99905.05
2022-12-29T12:14:33.270Z,99903.23
2022-12-29T12:17:11.605Z,99907.05
2022-12-29T12:19:44.273Z,99906.33
2022-12-29T12:22:15.163Z,99901.15
2022-12-29T12:24:46.044Z,99904.09
2022-12-29T12:27:16.230Z,99902.54
2022-12-29T12:29:48.138Z,99898.90
2022-12-29T12:32:18.294Z,99894.02
2022-12-29T12:34:47.256Z,99889.45
2022-12-29T12:37:29.951Z,99886.42
2022-12-29T12:40:07.660Z,99880.27
2022-12-29T12:42:41.922Z,99881.08
2022-12-29T12:45:27.835Z,99871.61
2022-12-29T12:48:01.482Z,99867.37
2022-12-29T12:50:40.191Z,99870.73
2022-12-29T12:53:16.352Z,99864.06
2022-12-29T12:55:56.642Z,99867.14
2022-12-29T12:58:30.725Z,99864.95
2022-12-29T13:01:07.431Z,99865.29
2022-12-29T13:03:45.817Z,99865.97
2022-12-29T13:06:19.304Z,99874.16
2022-12-29T13:09:10.366Z,99877.95
2022-12-29T13:11:46.340Z,99873.80
2022-12-29T13:14:23.415Z,99879.21
2022-12-29T13:16:55.268Z,99879.70
2022-12-29T13:19:29.382Z,99886.20
2022-12-29T13:22:06.649Z,99887.97
2022-12-29T13:24:42.378Z,99884.23
2022-12-29T13:27:15.395Z,99883.39
2022-12-29T13:29:47.567Z,99884.52
2022-12-29T13:32:23.660Z,99883.30
2022-12-29T13:34:57.847Z,99881.40
2022-12-29T13:37:27.166Z,99881.55
2022-12-29T13:39:57.322Z,99882.83
2022-12-29T13:42:25.818Z,99885.98
2022-12-29T13:44:55.477Z,99883.56
2022-12-29T13:47:28.102Z,99888.77
2022-12-29T13:49:57.188Z,99895.23
2022-12-29T13:52:32.608Z,99890.85
2022-12-29T13:55:03.170Z,99887.78
2022-12-29T13:57:40.842Z,99895.98
2022-12-29T14:00:14.073Z,99897.92
2022-12-29T14:02:51.810Z,99901.92
2022-12-29T14:05:29.906Z,99902.48
2022-12-29T14:08:01.977Z,99899.76
2022-12-29T14:10:33.899Z,99896.94
2022-12-29T14:13:03.339Z,99906.36
2022-12-29T14:15:31.375Z,99905.55
2022-12-29T14:18:06.341Z,99907.73
2022-12-29T14:20:34.887Z,99903.58
2022-12-29T14:23:17.449Z,99899.34
2022-12-29T14:26:00.051Z,99894.61
2022-12-29T14:28:29.200Z,99891.24
2022-12-29T14:30:57.640Z,99889.15
2022-12-29T14:33:27.056Z,99883.50
2022-12-29T14:35:55.798Z,99886.39
2022-12-29T14:38:28.207Z,99885.21
2022-12-29T14:41:12.949Z,99880.27
2022-12-29T14:43:52.300Z,99877.46
2022-12-29T14:46:20.148Z,99884.39
2022-12-29T14:48:48.401Z,99882.65
2022-12-29T14:51:21.227Z,99879.13
2022-12-29T14:53:49.598Z,99881.86
2022-12-29T14:56:18.241Z,99882.20
2022-12-29T14:58:51.624Z,99887.10
2022-12-29T15:01:26.079Z,99892.94
2022-12-29T15:03:57.470Z,99894.45
2022-12-29T15:06:26.327Z,99896.20
2022-12-29T15:08:56.748Z,99901.63
2022-12-29T15:11:25.698Z,99899.09
2022-12-29T15:13:53.706Z,99898.95
2022-12-29T15:16:25.455Z,99901.23
2022-12-29T15:18:53.191Z,99904.77
2022-12-29T15:21:24.565Z,99903.55
2022-12-29T15:23:53.258Z,99899.81
2022-12-29T15:26:23.058Z,99898.86
2022-12-29T15:28:51.994Z,99894.56
2022-12-29T15:31:24.854Z,99895.43
2022-12-29T15:34:04.210Z,99894.91
2022-12-29T15:36:37.606Z,99899.86
2022-12-29T15:39:19.223Z,99896.30
2022-12-29T15:42:04.363Z,99896.27
2022-12-29T15:44:36.410Z,99899.36
2022-12-29T15:47:05.289Z,99906.05
2022-12-29T15:49:36.677Z,99904.49
2022-12-29T15:52:08.792Z,99908.86
2022-12-29T15:54:37.415Z,99905.55
2022-12-29T15:57:16.735Z,99900.60
2022-12-29T15:59:47.407Z,99898.98
2022-12-29T16:02:15.512Z,99899.03
2022-12-29T16:05:16.017Z,99898.46
2022-12-29T16:07:41.737Z,99902.42
2022-12-29T16:10:23.512Z,99902.23
2022-12-29T16:12:51.547Z,99896.56
2022-12-29T16:15:19.863Z,99896.67
2022-12-29T16:17:49.019Z,99896.42
2022-12-29T16:20:18.851Z,99895.56
2022-12-29T16:22:49.669Z,99901.17
2022-12-29T16:25:20.831Z,99901.05
2022-12-29T16:27:48.690Z,99902.77
2022-12-29T16:30:24.288Z,99908.60
2022-12-29T16:32:57.770Z,99907.69
2022-12-29T16:35:27.165Z,99909.38
2022-12-29T16:38:13.753Z,99916.49
2022-12-29T16:40:50.946Z,99918.21
2022-12-29T16:43:23.501Z,99923.03
2022-12-29T16:46:08.882Z,99923.67
2022-12-29T16:48:37.676Z,99923.48
2022-12-29T16:51:07.300Z,99922.17
2022-12-29T16:53:37.661Z,99919.24
2022-12-29T16:56:10.134Z,99926.90
2022-12-29T16:58:39.183Z,99922.20
2022-12-29T17:01:14.979Z,99915.46
2022-12-29T17:03:44.892Z,99918.40
2022-12-29T17:06:15.110Z,99920.71
2022-12-29T17:08:43.478Z,99919.46
2022-12-29T17:11:38.810Z,99919.68
2022-12-29T17:14:15.530Z,99922.42
2022-12-29T17:16:43.740Z,99915.27
2022-12-29T17:19:16.522Z,99915.66
2022-12-29T17:21:44.621Z,99917.92
2022-12-29T17:24:15.606Z,99919.73
2022-12-29T17:26:43.398Z,99920.67
2022-12-29T17:29:13.685Z,99919.52
2022-12-29T17:31:41.520Z,99918.48
2022-12-29T17:34:11.631Z,99914.40
2022-12-29T17:36:39.534Z,99914.38
2022-12-29T17:39:08.625Z,99917.06
2022-12-29T17:41:36.719Z,99916.70
2022-12-29T17:44:04.993Z,99919.33
2022-12-29T17:46:32.723Z,99916.27
2022-12-29T17:49:00.960Z,99914.63
2022-12-29T17:51:28.950Z,99916.17
2022-12-29T17:53:56.708Z,99916.02
2022-12-29T17:56:24.435Z,99912.35
2022-12-29T17:58:52.403Z,99907.98
2022-12-29T18:01:21.485Z,99909.05
2022-12-29T18:03:49.606Z,99910.67
2022-12-29T18:06:17.588Z,99913.36
2022-12-29T18:08:45.231Z,99920.48
2022-12-29T18:11:20.519Z,99920.85
2022-12-29T18:13:48.410Z,99925.99
2022-12-29T18:16:16.393Z,99928.66
2022-12-29T18:18:44.099Z,99931.11
2022-12-29T18:21:16.624Z,99929.08
2022-12-29T18:23:44.445Z,99937.16
2022-12-29T18:26:19.614Z,99937.89
2022-12-29T18:28:50.728Z,99937.59
2022-12-29T18:31:20.285Z,99937.19
2022-12-29T18:33:48.862Z,99942.52
2022-12-29T18:36:17.047Z,99940.11
2022-12-29T18:38:46.060Z,99943.20
2022-12-29T18:41:15.749Z,99941.69
2022-12-29T18:43:43.818Z,99935.96
2022-12-29T18:46:14.933Z,99933.56
2022-12-29T18:48:47.020Z,99935.07
2022-12-29T18:51:16.459Z,99932.45
2022-12-29T18:53:44.976Z,99933.34
2022-12-29T18:56:13.538Z,99934.63
2022-12-29T18:58:41.433Z,99933.92
2022-12-29T19:01:18.459Z,99932.70
2022-12-29T19:03:47.312Z,99932.77
2022-12-29T19:06:15.340Z,99931.66
2022-12-29T19:08:43.445Z,99927.05
2022-12-29T19:11:11.175Z,99927.36
2022-12-29T19:13:39.996Z,99928.17
2022-12-29T19:16:09.144Z,99931.61
2022-12-29T19:18:47.472Z,99933.33
2022-12-29T19:21:19.408Z,99931.36
2022-12-29T19:23:47.628Z,99931.25
2022-12-29T19:26:27.221Z,99932.20
2022-12-29T19:28:55.711Z,99931.17
2022-12-29T19:31:23.808Z,99934.42
2022-12-29T19:33:52.146Z,99930.91
2022-12-29T19:36:20.528Z,99933.63
2022-12-29T19:38:48.267Z,99933.23
2022-12-29T19:41:16.130Z,99932.64
2022-12-29T19:43:44.492Z,99935.42
2022-12-29T19:46:15.091Z,99939.56
2022-12-29T19:48:43.151Z,99937.91
2022-12-29T19:51:15.083Z,99937.17
2022-12-29T19:53:43.355Z,99939.88
2022-12-29T19:56:11.815Z,99936.70
2022-12-29T19:58:45.204Z,99940.60
2022-12-29T20:01:15.678Z,99936.70
2022-12-29T20:03:43.918Z,99937.13
2022-12-29T20:06:11.902Z,99938.10
2022-12-29T20:08:40.266Z,99933.39
2022-12-29T20:11:09.524Z,99933.79
2022-12-29T20:13:37.608Z,99930.13
2022-12-29T20:16:11.858Z,99932.70
2022-12-29T20:18:39.875Z,99925.92
2022-12-29T20:21:08.868Z,99930.50
2022-12-29T20:23:38.590Z,99931.52
2022-12-29T20:26:08.521Z,99929.04
2022-12-29T20:28:36.410Z,99926.78
2022-12-29T20:31:07.193Z,99925.70
2022-12-29T20:33:35.684Z,99927.48
2022-12-29T20:36:07.519Z,99929.23
2022-12-29T20:38:35.951Z,99932.20
2022-12-29T20:41:04.121Z,99935.64
2022-12-29T20:43:33.585Z,99935.52
2022-12-29T20:46:21.050Z,99936.80
2022-12-29T20:49:03.101Z,99936.91
2022-12-29T20:52:07.489Z,99936.98
2022-12-29T20:54:39.435Z,99938.67
2022-12-29T20:57:14.813Z,99934.73
2022-12-29T20:59:43.879Z,99939.56
2022-12-29T21:02:28.899Z,99941.90
2022-12-29T21:05:22.774Z,99941.73
2022-12-29T21:07:45.539Z,99938.86
2022-12-29T21:10:13.642Z,99941.87
2022-12-29T21:12:42.638Z,99940.83
2022-12-29T21:15:15.199Z,99938.80
2022-12-29T21:17:44.031Z,99934.11
2022-12-29T21:20:20.887Z,99933.91
2022-12-29T21:22:49.790Z,99936.35
2022-12-29T21:25:18.025Z,99936.58
2022-12-29T21:27:45.894Z,99936.91
2022-12-29T21:32:59.167Z,99942.15
2022-12-29T21:35:30.599Z,99938.20
2022-12-29T21:37:58.986Z,99942.02
2022-12-29T21:40:27.665Z,99943.48
2022-12-29T21:42:56.045Z,99944.69
2022-12-29T21:45:27.200Z,99940.80
2022-12-29T21:48:15.495Z,99938.42
2022-12-29T21:51:05.854Z,99937.35
2022-12-29T21:53:39.665Z,99941.13
2022-12-29T21:56:09.615Z,99944.14
2022-12-29T21:58:57.185Z,99944.88
2022-12-29T22:01:43.888Z,99939.60
2022-12-29T22:04:30.761Z,99939.30
2022-12-29T22:07:16.888Z,99941.95
2022-12-29T22:10:03.454Z,99944.71
2022-12-29T22:12:50.888Z,99947.48
2022-12-29T22:15:19.921Z,99942.52
2022-12-29T22:17:49.301Z,99945.58
2022-12-29T22:20:23.090Z,99942.67
2022-12-29T22:22:51.047Z,99944.83
2022-12-29T22:25:19.474Z,99947.83
2022-12-29T22:27:47.274Z,99957.98
2022-12-29T22:30:15.789Z,99962.27
2022-12-29T22:32:43.860Z,99964.16
2022-12-29T22:35:13.411Z,99965.53
2022-12-29T22:37:44.303Z,99967.45
2022-12-29T22:40:36.609Z,99965.89
2022-12-29T22:43:11.071Z,99967.16
2022-12-29T22:45:41.851Z,99967.23
2022-12-29T22:48:12.987Z,99972.42
2022-12-29T22:50:43.758Z,99972.45
2022-12-29T22:53:16.400Z,99969.83
2022-12-29T22:55:47.136Z,99972.41
2022-12-29T22:58:15.246Z,99976.19
2022-12-29T23:00:42.973Z,99973.77
2022-12-29T23:03:11.244Z,99972.39
2022-12-29T23:05:41.501Z,99980.01
2022-12-29T23:08:09.380Z,99983.07
2022-12-29T23:10:44.429Z,99987.55
2022-12-29T23:13:12.440Z,99987.88
2022-12-29T23:15:46.755Z,99996.91
2022-12-29T23:18:15.411Z,99990.33
2022-12-29T23:20:43.414Z,99991.20
2022-12-29T23:23:11.312Z,99994.73
2022-12-29T23:25:39.282Z,99997.41
2022-12-29T23:28:09.597Z,100003.48
2022-12-29T23:30:38.076Z,100007.24
2022-12-29T23:33:07.880Z,100007.41
2022-12-29T23:35:36.662Z,100008.02
2022-12-29T23:38:04.474Z,100009.06
2022-12-29T23:40:33.087Z,100011.33
2022-12-29T23:43:00.886Z,100011.85
2022-12-29T23:45:28.784Z,100012.78
2022-12-29T23:47:56.647Z,100005.16
2022-12-29T23:50:24.447Z,100002.27
2022-12-29T23:52:52.358Z,100002.83
2022-12-29T23:55:22.204Z,100002.08
2022-12-29T23:57:54.864Z,100006.32
